Time;durP1;ratioP1;P1;durP2;ratioP2;P2;SDS_P1;SDS_P2;PMS_P1;PMS_P2;Temp;Humidity;BMP_temperature;BMP_pressure;BME280_temperature;BME280_humidity;BME280_pressure;Samples;Min_cycle;Max_cycle;Signal;HPM_P1;HPM_P2
2022/06/03 00:01:14;;;;;;;3.15;3.03;;;;;;;;;;5054910;28;20107;-87
2022/06/03 00:03:52;;;;;;;3.47;3.28;;;;;;;;;;5036758;28;20091;-87
2022/06/03 00:06:37;;;;;;;3.70;3.40;;;;;;;;;;5036830;28;20128;-88
2022/06/03 00:09:23;;;;;;;5.72;3.92;;;;;;;;;;5053849;28;20090;-87
2022/06/03 00:11:59;;;;;;;4.32;4.00;;;;;;;;;;5054237;28;20057;-87
2022/06/03 00:14:36;;;;;;;4.28;3.97;;;;;;;;;;5036522;28;20052;-87
2022/06/03 00:17:10;;;;;;;4.07;3.78;;;;;;;;;;5036452;28;20053;-88
2022/06/03 00:19:56;;;;;;;4.07;3.88;;;;;;;;;;5054022;28;20576;-88
2022/06/03 00:22:26;;;;;;;4.45;4.05;;;;;;;;;;5054028;28;20069;-87
2022/06/03 00:25:09;;;;;;;4.50;4.20;;;;;;;;;;5036496;28;20047;-88
2022/06/03 00:27:45;;;;;;;3.58;3.38;;;;;;;;;;5036511;28;20490;-87
2022/06/03 00:30:26;;;;;;;4.03;3.83;;;;;;;;;;5053922;28;20076;-87
2022/06/03 00:33:12;;;;;;;4.60;4.20;;;;;;;;;;5036178;28;20053;-87
2022/06/03 00:35:42;;;;;;;4.50;4.10;;;;;;;;;;5036128;28;20127;-87
2022/06/03 00:38:09;;;;;;;4.88;4.47;;;;;;;;;;5053735;28;20049;-87
2022/06/03 00:40:41;;;;;;;4.80;4.40;;;;;;;;;;5035934;28;20466;-88
2022/06/03 00:43:25;;;;;;;4.38;3.97;;;;;;;;;;5036334;28;20117;-88
2022/06/03 00:45:59;;;;;;;4.20;4.00;;;;;;;;;;5053413;28;20062;-88
2022/06/03 00:48:37;;;;;;;4.60;4.30;;;;;;;;;;5036073;28;20467;-87
2022/06/03 00:51:23;;;;;;;4.50;4.20;;;;;;;;;;5036115;28;20128;-87
2022/06/03 00:53:50;;;;;;;4.63;4.03;;;;;;;;;;5035250;28;20140;-87
2022/06/03 00:56:34;;;;;;;4.70;4.40;;;;;;;;;;5035623;28;20079;-87
2022/06/03 00:59:14;;;;;;;4.68;4.35;;;;;;;;;;5035609;28;20140;-87
2022/06/03 01:01:50;;;;;;;5.18;4.30;;;;;;;;;;5053451;28;20071;-87
2022/06/03 01:04:17;;;;;;;5.20;4.80;;;;;;;;;;5052948;28;20076;-87
2022/06/03 01:06:59;;;;;;;4.53;4.10;;;;;;;;;;5035763;28;20061;-87
2022/06/03 01:09:33;;;;;;;4.40;4.10;;;;;;;;;;5053945;28;20049;-87
2022/06/03 01:12:00;;;;;;;;;;;;;;;;;;5039158;28;20123;-87
2022/06/03 01:14:27;;;;;;;4.63;4.22;;;;;;;;;;5035267;28;20435;-87
2022/06/03 01:17:21;;;;;;;4.88;4.47;;;;;;;;;;5053030;28;20048;-87
2022/06/03 01:19:48;;;;;;;4.60;4.10;;;;;;;;;;5035528;28;20056;-86
2022/06/03 01:22:21;;;;;;;4.95;4.55;;;;;;;;;;5052892;28;20148;-86
2022/06/03 01:25:05;;;;;;;4.50;4.20;;;;;;;;;;5035425;28;20091;-87
2022/06/03 01:27:33;;;;;;;5.57;4.72;;;;;;;;;;5053039;28;20069;-87
2022/06/03 01:30:09;;;;;;;7.75;4.53;;;;;;;;;;5035246;28;20053;-87
2022/06/03 01:32:55;;;;;;;4.43;4.03;;;;;;;;;;5035547;28;20132;-87
2022/06/03 01:35:25;;;;;;;4.43;4.13;;;;;;;;;;5052352;28;20083;-87
2022/06/03 01:37:55;;;;;;;4.85;4.45;;;;;;;;;;5035931;28;20412;-87
2022/06/03 01:40:22;;;;;;;4.80;4.47;;;;;;;;;;5035572;28;20098;-87
2022/06/03 01:42:58;;;;;;;4.40;4.05;;;;;;;;;;5052898;28;20524;-87
2022/06/03 01:45:42;;;;;;;4.65;4.20;;;;;;;;;;5052692;28;20478;-87
2022/06/03 01:48:12;;;;;;;4.40;4.10;;;;;;;;;;5052723;28;20076;-87
2022/06/03 01:50:57;;;;;;;4.95;4.45;;;;;;;;;;5035448;28;20135;-87
2022/06/03 01:53:31;;;;;;;5.15;4.75;;;;;;;;;;5035116;28;20053;-87
2022/06/03 01:56:21;;;;;;;5.07;4.75;;;;;;;;;;5035384;28;20053;-87
2022/06/03 01:59:07;;;;;;;5.38;4.88;;;;;;;;;;4990580;28;20471;-87
2022/06/03 02:01:48;;;;;;;4.72;4.43;;;;;;;;;;5052595;28;20084;-87
2022/06/03 02:04:33;;;;;;;4.45;3.83;;;;;;;;;;5034898;28;20052;-87
2022/06/03 02:07:15;;;;;;;5.28;4.88;;;;;;;;;;5038107;28;20087;-87
2022/06/03 02:10:01;;;;;;;4.60;4.30;;;;;;;;;;5039141;28;20056;-87
2022/06/03 02:12:52;;;;;;;4.65;4.35;;;;;;;;;;5056446;28;20045;-87
2022/06/03 02:15:27;;;;;;;5.00;4.70;;;;;;;;;;5038305;28;20056;-87
2022/06/03 02:18:12;;;;;;;5.90;5.32;;;;;;;;;;5056231;28;20129;-87
2022/06/03 02:20:58;;;;;;;5.90;5.00;;;;;;;;;;5055990;28;20144;-87
2022/06/03 02:23:49;;;;;;;9.75;5.15;;;;;;;;;;5038518;28;20476;-87
2022/06/03 02:26:25;;;;;;;5.40;4.90;;;;;;;;;;5039274;28;20107;-88
2022/06/03 02:30:24;;;;;;;5.18;4.85;;;;;;;;;;5061435;28;20446;-87
2022/06/03 02:31:55;;;;;;;5.45;5.15;;;;;;;;;;5056077;28;20124;-87
2022/06/03 02:34:29;;;;;;;5.80;5.40;;;;;;;;;;5038145;28;20053;-87
2022/06/03 02:37:17;;;;;;;5.88;5.45;;;;;;;;;;5055943;28;20136;-87
2022/06/03 02:40:00;;;;;;;5.80;5.40;;;;;;;;;;5006407;28;20055;-86
2022/06/03 02:42:34;;;;;;;5.93;5.43;;;;;;;;;;5038076;28;20053;-87
2022/06/03 02:45:27;;;;;;;5.70;5.18;;;;;;;;;;5041199;28;20444;-87
2022/06/03 02:48:13;;;;;;;8.05;5.38;;;;;;;;;;5055804;28;20129;-87
2022/06/03 02:50:55;;;;;;;5.82;5.45;;;;;;;;;;5038175;28;20139;-87
2022/06/03 02:53:43;;;;;;;5.28;4.88;;;;;;;;;;5037844;28;20063;-87
2022/06/03 02:56:19;;;;;;;6.15;5.65;;;;;;;;;;5005783;28;20536;-87
2022/06/03 02:58:59;;;;;;;5.93;5.32;;;;;;;;;;5055447;28;20056;-87
2022/06/03 03:01:55;;;;;;;7.13;5.90;;;;;;;;;;5037986;28;20056;-87
2022/06/03 03:04:34;;;;;;;5.78;5.32;;;;;;;;;;5017226;28;20413;-87
2022/06/03 03:07:13;;;;;;;4.97;4.63;;;;;;;;;;5037857;28;20055;-87
2022/06/03 03:09:40;;;;;;;5.63;5.13;;;;;;;;;;5037741;28;20129;-87
2022/06/03 03:12:19;;;;;;;5.93;5.38;;;;;;;;;;5055182;28;20048;-86
2022/06/03 03:15:06;;;;;;;5.30;4.90;;;;;;;;;;5037407;28;20055;-87
2022/06/03 03:17:43;;;;;;;5.50;5.10;;;;;;;;;;5037505;28;20056;-87
2022/06/03 03:20:20;;;;;;;5.80;5.20;;;;;;;;;;5055199;28;20461;-87
2022/06/03 03:23:03;;;;;;;5.43;5.13;;;;;;;;;;5037542;28;20052;-87
2022/06/03 03:25:49;;;;;;;5.20;4.80;;;;;;;;;;5037831;28;20479;-87
2022/06/03 03:28:25;;;;;;;6.20;5.70;;;;;;;;;;5037399;28;20045;-87
2022/06/03 03:31:08;;;;;;;7.00;6.30;;;;;;;;;;5037373;28;20151;-86
2022/06/03 03:33:45;;;;;;;7.70;7.00;;;;;;;;;;5037541;28;20135;-87
2022/06/03 03:36:34;;;;;;;7.38;6.82;;;;;;;;;;5037533;28;20091;-87
2022/06/03 03:39:13;;;;;;;9.00;7.90;;;;;;;;;;5037380;28;20112;-87
2022/06/03 03:41:47;;;;;;;8.60;7.72;;;;;;;;;;5054770;28;20127;-86
2022/06/03 03:44:31;;;;;;;10.60;7.75;;;;;;;;;;5041841;28;20083;-87
2022/06/03 03:47:11;;;;;;;7.20;6.50;;;;;;;;;;5040062;28;20045;-87
2022/06/03 03:49:48;;;;;;;8.43;7.70;;;;;;;;;;5037182;28;20057;-87
2022/06/03 03:52:26;;;;;;;8.63;7.93;;;;;;;;;;5036851;28;20128;-87
2022/06/03 03:55:06;;;;;;;7.68;6.97;;;;;;;;;;5036823;28;20045;-87
2022/06/03 03:57:52;;;;;;;7.95;6.95;;;;;;;;;;5037033;28;20128;-87
2022/06/03 04:00:38;;;;;;;7.00;6.50;;;;;;;;;;5054120;28;20088;-87
2022/06/03 04:03:17;;;;;;;7.95;7.25;;;;;;;;;;5037044;28;20045;-87
2022/06/03 04:06:03;;;;;;;7.30;6.60;;;;;;;;;;5036548;28;20049;-87
2022/06/03 04:08:45;;;;;;;10.30;8.05;;;;;;;;;;5054102;28;20131;-88
2022/06/03 04:11:21;;;;;;;10.68;9.18;;;;;;;;;;5036867;28;20048;-86
2022/06/03 04:14:07;;;;;;;12.50;11.20;;;;;;;;;;5036755;28;20139;-87
2022/06/03 04:16:55;;;;;;;11.15;10.10;;;;;;;;;;5054173;28;20562;-86
2022/06/03 04:19:22;;;;;;;15.68;12.68;;;;;;;;;;5004317;28;20128;-87
2022/06/03 04:22:08;;;;;;;14.90;9.07;;;;;;;;;;5053963;28;20084;-87
2022/06/03 04:25:00;;;;;;;6.82;5.40;;;;;;;;;;5053727;28;20087;-87
2022/06/03 04:27:40;;;;;;;8.10;5.70;;;;;;;;;;5036822;28;20056;-87
2022/06/03 04:30:32;;;;;;;6.93;6.13;;;;;;;;;;5036204;28;20086;-87
2022/06/03 04:33:14;;;;;;;6.57;6.07;;;;;;;;;;5036211;28;20056;-87
2022/06/03 04:36:01;;;;;;;5.70;5.10;;;;;;;;;;5036146;28;20048;-87
2022/06/03 04:38:31;;;;;;;6.47;4.55;;;;;;;;;;5053907;28;20045;-87
2022/06/03 04:41:17;;;;;;;5.05;4.65;;;;;;;;;;5053670;28;20103;-86
2022/06/03 04:43:50;;;;;;;19.40;13.88;;;;;;;;;;5053674;28;20400;-86
2022/06/03 04:46:38;;;;;;;15.77;10.80;;;;;;;;;;5036288;28;20512;-87
2022/06/03 04:49:05;;;;;;;9.23;7.53;;;;;;;;;;5053414;28;20049;-87
2022/06/03 04:51:39;;;;;;;6.43;5.43;;;;;;;;;;5053203;28;20110;-87
2022/06/03 04:54:06;;;;;;;4.32;4.03;;;;;;;;;;5035796;28;20055;-86
2022/06/03 04:56:52;;;;;;;3.90;3.20;;;;;;;;;;5035717;28;20071;-87
2022/06/03 04:59:19;;;;;;;3.65;3.22;;;;;;;;;;5053192;28;20478;-87
2022/06/03 05:01:49;;;;;;;3.35;2.58;;;;;;;;;;5044720;28;20053;-86
2022/06/03 05:04:35;;;;;;;3.22;2.35;;;;;;;;;;5039604;28;20048;-87
2022/06/03 05:07:02;;;;;;;3.08;2.88;;;;;;;;;;5035746;28;20075;-87
2022/06/03 05:09:48;;;;;;;6.60;3.75;;;;;;;;;;5053504;28;20049;-87
2022/06/03 05:12:34;;;;;;;9.25;5.00;;;;;;;;;;5053100;28;20143;-87
2022/06/03 05:15:20;;;;;;;10.90;5.53;;;;;;;;;;5035254;28;20075;-87
2022/06/03 05:18:03;;;;;;;10.15;5.18;;;;;;;;;;5035454;28;20049;-88
2022/06/03 05:20:39;;;;;;;14.98;6.95;;;;;;;;;;5035461;28;20457;-88
2022/06/03 05:23:25;;;;;;;9.65;6.20;;;;;;;;;;5035536;28;20072;-87
2022/06/03 05:25:52;;;;;;;10.80;6.25;;;;;;;;;;5035488;28;20508;-87
2022/06/03 05:28:38;;;;;;;11.75;5.57;;;;;;;;;;5053136;28;20132;-88
2022/06/03 05:31:26;;;;;;;6.68;3.83;;;;;;;;;;5035396;28;20095;-87
2022/06/03 05:34:12;;;;;;;10.05;3.97;;;;;;;;;;5035383;28;20158;-87
2022/06/03 05:36:56;;;;;;;7.90;3.47;;;;;;;;;;5053001;28;20135;-88
2022/06/03 05:39:32;;;;;;;17.13;6.03;;;;;;;;;;5052776;28;20519;-88
2022/06/03 05:42:24;;;;;;;30.00;7.50;;;;;;;;;;5039153;28;20569;-88
2022/06/03 05:45:10;;;;;;;15.60;5.30;;;;;;;;;;5039517;28;20080;-88
2022/06/03 05:47:56;;;;;;;15.02;5.80;;;;;;;;;;5039549;28;20056;-87
2022/06/03 05:50:43;;;;;;;14.77;4.55;;;;;;;;;;5039275;28;20045;-87
2022/06/03 05:53:32;;;;;;;5.85;2.92;;;;;;;;;;5039578;28;20107;-87
2022/06/03 05:56:18;;;;;;;3.45;2.08;;;;;;;;;;5038956;28;20462;-87
2022/06/03 05:58:51;;;;;;;5.70;2.55;;;;;;;;;;5056627;28;20437;-88
2022/06/03 06:01:24;;;;;;;9.93;3.40;;;;;;;;;;5056760;28;20107;-87
2022/06/03 06:04:07;;;;;;;6.65;2.80;;;;;;;;;;5040813;28;20126;-86
2022/06/03 06:06:52;;;;;;;4.93;2.33;;;;;;;;;;5058599;28;20080;-87
2022/06/03 06:09:25;;;;;;;1.40;1.30;;;;;;;;;;5040173;28;20053;-86
2022/06/03 06:12:00;;;;;;;1.75;1.15;;;;;;;;;;5040251;28;20136;-86
2022/06/03 06:14:40;;;;;;;3.65;2.05;;;;;;;;;;5040745;28;20053;-87
2022/06/03 06:17:21;;;;;;;2.42;1.40;;;;;;;;;;5040449;28;20131;-85
2022/06/03 06:19:52;;;;;;;6.20;2.20;;;;;;;;;;5052263;28;20406;-85
2022/06/03 06:22:29;;;;;;;5.38;2.00;;;;;;;;;;5057249;28;20456;-86
2022/06/03 06:24:56;;;;;;;5.70;1.80;;;;;;;;;;5056482;28;20095;-86
2022/06/03 06:27:32;;;;;;;18.83;4.20;;;;;;;;;;5038919;28;20114;-84
2022/06/03 06:29:59;;;;;;;20.45;4.85;;;;;;;;;;5038911;28;20088;-85
2022/06/03 06:32:29;;;;;;;15.00;4.13;;;;;;;;;;5056102;28;20095;-85
2022/06/03 06:35:15;;;;;;;16.98;3.83;;;;;;;;;;5038763;28;20087;-86
2022/06/03 06:38:07;;;;;;;14.27;4.10;;;;;;;;;;5038788;28;20048;-86
2022/06/03 06:40:41;;;;;;;22.27;4.72;;;;;;;;;;5038470;28;20053;-84
2022/06/03 06:43:29;;;;;;;7.47;2.83;;;;;;;;;;5038441;28;20072;-85
2022/06/03 06:46:06;;;;;;;8.65;2.90;;;;;;;;;;5038555;28;20041;-85
2022/06/03 06:48:39;;;;;;;7.18;2.15;;;;;;;;;;5056057;28;20079;-86
2022/06/03 06:51:17;;;;;;;9.35;2.00;;;;;;;;;;5053859;28;20597;-84
2022/06/03 06:53:51;;;;;;;6.05;2.50;;;;;;;;;;5038216;28;20524;-85
2022/06/03 06:56:24;;;;;;;2.90;1.55;;;;;;;;;;5038294;28;20080;-85
2022/06/03 06:59:06;;;;;;;2.38;1.83;;;;;;;;;;5038141;28;20474;-85
2022/06/03 07:01:36;;;;;;;6.88;1.80;;;;;;;;;;5037982;28;20080;-86
2022/06/03 07:04:06;;;;;;;2.00;1.67;;;;;;;;;;5037894;28;20048;-85
2022/06/03 07:06:43;;;;;;;3.47;1.30;;;;;;;;;;5055631;28;20072;-86
2022/06/03 07:09:10;;;;;;;3.80;1.73;;;;;;;;;;5038285;28;20077;-85
2022/06/03 07:11:56;;;;;;;3.63;1.40;;;;;;;;;;5055536;28;20100;-87
2022/06/03 07:14:29;;;;;;;3.22;1.40;;;;;;;;;;5037482;28;20139;-83
2022/06/03 07:20:21;;;;;;;1.73;1.00;;;;;;;;;;5055371;28;20505;-85
2022/06/03 07:22:55;;;;;;;4.72;1.42;;;;;;;;;;5037872;28;20053;-87
2022/06/03 07:25:27;;;;;;;5.25;1.13;;;;;;;;;;5055170;28;20056;-85
2022/06/03 07:28:16;;;;;;;2.10;1.35;;;;;;;;;;5038034;28;20556;-86
2022/06/03 07:30:43;;;;;;;5.93;0.93;;;;;;;;;;5055231;28;20053;-87
2022/06/03 07:33:14;;;;;;;0.82;0.82;;;;;;;;;;5055054;28;20053;-85
2022/06/03 07:35:55;;;;;;;1.15;0.77;;;;;;;;;;5039271;28;20049;-85
2022/06/03 07:38:29;;;;;;;2.00;0.90;;;;;;;;;;5039744;28;20056;-87
2022/06/03 07:40:59;;;;;;;1.25;1.00;;;;;;;;;;5054979;28;20128;-88
2022/06/03 07:43:26;;;;;;;2.55;0.80;;;;;;;;;;5037753;28;20056;-87
2022/06/03 07:46:09;;;;;;;2.13;0.93;;;;;;;;;;5054876;28;20092;-85
2022/06/03 07:48:36;;;;;;;5.90;1.13;;;;;;;;;;5037551;28;20163;-86
2022/06/03 07:51:06;;;;;;;0.80;0.80;;;;;;;;;;5054793;28;20553;-84
2022/06/03 07:53:50;;;;;;;0.82;0.75;;;;;;;;;;5037783;28;20118;-84
2022/06/03 07:56:25;;;;;;;3.15;1.00;;;;;;;;;;5036906;28;20049;-86
2022/06/03 07:58:53;;;;;;;1.80;0.85;;;;;;;;;;5037462;28;20055;-85
2022/06/03 08:01:25;;;;;;;0.93;0.85;;;;;;;;;;5054583;28;20091;-85
2022/06/03 08:03:53;;;;;;;2.20;0.73;;;;;;;;;;5036125;28;20049;-86
2022/06/03 08:06:30;;;;;;;1.10;0.60;;;;;;;;;;5037052;28;20559;-86
2022/06/03 08:11:54;;;;;;;3.78;0.90;;;;;;;;;;5000696;28;20046;-87
2022/06/03 08:14:26;;;;;;;2.10;1.13;;;;;;;;;;5036570;28;20061;-85
2022/06/03 08:16:54;;;;;;;0.90;0.90;;;;;;;;;;5036755;28;20131;-86
2022/06/03 08:19:26;;;;;;;1.48;0.80;;;;;;;;;;5036599;28;20079;-87
2022/06/03 08:22:00;;;;;;;1.25;0.73;;;;;;;;;;5037275;28;20079;-87
2022/06/03 08:24:35;;;;;;;3.30;0.98;;;;;;;;;;5053878;28;20132;-86
2022/06/03 08:27:03;;;;;;;2.72;0.90;;;;;;;;;;5036893;28;20076;-86
2022/06/03 08:29:34;;;;;;;3.67;0.70;;;;;;;;;;5036549;28;20077;-87
2022/06/03 08:32:05;;;;;;;2.92;1.08;;;;;;;;;;5036834;28;20076;-87
2022/06/03 08:34:38;;;;;;;4.30;1.05;;;;;;;;;;5054280;28;20095;-87
2022/06/03 08:37:08;;;;;;;1.13;1.00;;;;;;;;;;5053988;28;20085;-87
2022/06/03 08:39:39;;;;;;;4.00;1.25;;;;;;;;;;5054555;28;20057;-88
2022/06/03 08:42:27;;;;;;;2.38;1.00;;;;;;;;;;5036659;28;20051;-86
2022/06/03 08:45:06;;;;;;;2.08;1.13;;;;;;;;;;5053814;28;20076;-86
2022/06/03 08:47:54;;;;;;;4.25;1.05;;;;;;;;;;5053782;28;20382;-86
2022/06/03 08:50:31;;;;;;;2.83;1.20;;;;;;;;;;5036338;28;20045;-85
2022/06/03 08:52:58;;;;;;;4.70;1.67;;;;;;;;;;5036611;28;20408;-86
2022/06/03 08:55:41;;;;;;;5.30;1.60;;;;;;;;;;5037810;28;20379;-84
2022/06/03 08:58:15;;;;;;;3.28;1.30;;;;;;;;;;5035659;28;20120;-85
2022/06/03 09:01:00;;;;;;;1.85;1.33;;;;;;;;;;5053814;28;20055;-86
2022/06/03 09:03:28;;;;;;;3.83;1.45;;;;;;;;;;5053561;28;20084;-86
2022/06/03 09:06:06;;;;;;;5.65;1.48;;;;;;;;;;5036027;28;20488;-87
2022/06/03 09:08:39;;;;;;;3.03;1.38;;;;;;;;;;5035752;28;20094;-86
2022/06/03 09:11:16;;;;;;;2.25;1.27;;;;;;;;;;5053663;28;20091;-86
2022/06/03 09:14:04;;;;;;;4.88;1.60;;;;;;;;;;5036147;28;20053;-87
2022/06/03 09:16:32;;;;;;;5.88;1.85;;;;;;;;;;5053234;28;20155;-86
2022/06/03 09:19:04;;;;;;;3.30;1.63;;;;;;;;;;5035797;28;20053;-92
2022/06/03 09:21:33;;;;;;;5.82;1.90;;;;;;;;;;5036084;28;20498;-87
2022/06/03 09:24:11;;;;;;;2.10;1.40;;;;;;;;;;5036193;28;20041;-87
2022/06/03 09:26:42;;;;;;;4.38;1.80;;;;;;;;;;5053163;28;20460;-86
2022/06/03 09:29:11;;;;;;;2.92;1.60;;;;;;;;;;5035533;28;20041;-87
2022/06/03 09:31:42;;;;;;;4.25;1.80;;;;;;;;;;5036116;28;20401;-87
2022/06/03 09:34:11;;;;;;;3.38;1.10;;;;;;;;;;5035491;28;20045;-88
2022/06/03 09:36:38;;;;;;;3.22;1.30;;;;;;;;;;5035895;28;20139;-87
2022/06/03 09:39:08;;;;;;;6.00;1.92;;;;;;;;;;5035731;28;20455;-88
2022/06/03 09:41:36;;;;;;;4.05;1.15;;;;;;;;;;5036049;28;20083;-87
2022/06/03 09:44:04;;;;;;;1.88;1.33;;;;;;;;;;5052833;28;20453;-86
2022/06/03 09:46:34;;;;;;;1.42;1.08;;;;;;;;;;5035569;28;20477;-87
2022/06/03 09:49:02;;;;;;;2.63;1.25;;;;;;;;;;5035570;28;20489;-86
2022/06/03 09:54:22;;;;;;;2.80;1.08;;;;;;;;;;5053049;28;20061;-86
2022/06/03 09:56:51;;;;;;;6.60;1.10;;;;;;;;;;5035560;28;20136;-89
2022/06/03 09:59:20;;;;;;;4.03;1.08;;;;;;;;;;5035983;28;20056;-87
2022/06/03 10:01:49;;;;;;;6.15;1.20;;;;;;;;;;5039194;28;20049;-87
2022/06/03 10:04:17;;;;;;;2.10;0.82;;;;;;;;;;5035424;28;20045;-87
2022/06/03 10:06:50;;;;;;;1.48;0.65;;;;;;;;;;5053297;28;20076;-85
2022/06/03 10:17:40;;;;;;;3.50;0.80;;;;;;;;;;5052781;28;20048;-87
2022/06/03 10:20:08;;;;;;;0.98;0.98;;;;;;;;;;5035843;28;20084;-87
2022/06/03 10:22:36;;;;;;;0.75;0.75;;;;;;;;;;5035424;28;20539;-88
2022/06/03 10:25:04;;;;;;;6.50;1.52;;;;;;;;;;5052823;28;20110;-85
2022/06/03 10:27:31;;;;;;;1.25;0.63;;;;;;;;;;5037380;28;20170;-87
2022/06/03 10:29:59;;;;;;;2.58;0.80;;;;;;;;;;5038910;28;20076;-87
2022/06/03 10:32:26;;;;;;;0.73;0.70;;;;;;;;;;5038849;28;20251;-86
2022/06/03 10:35:05;;;;;;;2.92;0.73;;;;;;;;;;5038768;28;20053;-87
2022/06/03 10:37:34;;;;;;;2.25;0.88;;;;;;;;;;5039417;28;20127;-88
2022/06/03 10:40:01;;;;;;;1.80;0.47;;;;;;;;;;5038613;28;20136;-88
2022/06/03 10:42:28;;;;;;;2.05;0.85;;;;;;;;;;5038783;28;20076;-87
2022/06/03 10:44:57;;;;;;;2.25;0.80;;;;;;;;;;5038872;28;20481;-87
2022/06/03 10:47:32;;;;;;;3.63;0.70;;;;;;;;;;5038827;28;20061;-87
2022/06/03 10:50:01;;;;;;;3.42;0.60;;;;;;;;;;5056362;28;20055;-86
2022/06/03 11:01:12;;;;;;;1.00;0.90;;;;;;;;;;5055864;28;20057;-87
2022/06/03 11:03:44;;;;;;;2.70;0.77;;;;;;;;;;5038305;28;20201;-89
2022/06/03 11:06:14;;;;;;;3.65;0.70;;;;;;;;;;5038338;28;20072;-89
2022/06/03 11:08:49;;;;;;;2.85;0.60;;;;;;;;;;5038547;28;20088;-85
2022/06/03 11:11:35;;;;;;;4.82;0.70;;;;;;;;;;5037868;28;20049;-87
2022/06/03 11:14:32;;;;;;;1.50;0.65;;;;;;;;;;5038019;28;20076;-86
2022/06/03 11:17:05;;;;;;;0.80;0.80;;;;;;;;;;5018137;28;20108;-90
2022/06/03 11:19:38;;;;;;;0.60;0.60;;;;;;;;;;5038385;28;20151;-90
2022/06/03 11:22:26;;;;;;;2.08;0.70;;;;;;;;;;5034278;28;20143;-88
2022/06/03 11:24:53;;;;;;;1.15;0.73;;;;;;;;;;5038129;28;20128;-85
2022/06/03 11:27:22;;;;;;;0.70;0.70;;;;;;;;;;5038328;28;20489;-88
2022/06/03 11:29:50;;;;;;;1.75;0.80;;;;;;;;;;5040686;28;20560;-87
2022/06/03 11:32:18;;;;;;;5.15;0.70;;;;;;;;;;5038759;28;20056;-86
2022/06/03 11:34:55;;;;;;;14.02;1.60;;;;;;;;;;5037493;28;20087;-86
2022/06/03 11:37:34;;;;;;;8.98;1.45;;;;;;;;;;5054876;28;20048;-87
2022/06/03 11:40:13;;;;;;;0.88;0.70;;;;;;;;;;5037672;28;20045;-88
2022/06/03 11:42:45;;;;;;;1.13;0.70;;;;;;;;;;5055525;28;20126;-87
2022/06/03 11:45:12;;;;;;;2.30;0.80;;;;;;;;;;5037663;28;20076;-90
2022/06/03 11:47:48;;;;;;;2.15;0.88;;;;;;;;;;5038222;28;20574;-88
2022/06/03 11:50:20;;;;;;;0.70;0.70;;;;;;;;;;5037833;28;20080;-90
2022/06/03 11:52:49;;;;;;;2.63;0.60;;;;;;;;;;5055426;28;20454;-87
2022/06/03 11:55:18;;;;;;;0.60;0.60;;;;;;;;;;5037280;28;20107;-87
2022/06/03 11:57:51;;;;;;;1.65;0.60;;;;;;;;;;5037691;28;20064;-90
2022/06/03 12:00:20;;;;;;;0.95;0.80;;;;;;;;;;5038009;28;20060;-87
2022/06/03 12:03:05;;;;;;;2.80;0.75;;;;;;;;;;5054959;28;20084;-88
2022/06/03 12:05:41;;;;;;;0.77;0.50;;;;;;;;;;5037001;28;20131;-87
2022/06/03 12:08:14;;;;;;;0.60;0.60;;;;;;;;;;5054641;28;20599;-86
2022/06/03 12:10:42;;;;;;;1.08;0.60;;;;;;;;;;5037315;28;20049;-85
2022/06/03 12:13:21;;;;;;;0.57;0.57;;;;;;;;;;5036600;28;20057;-86
2022/06/03 12:15:48;;;;;;;1.00;0.82;;;;;;;;;;5053963;28;20136;-85
2022/06/03 12:18:16;;;;;;;1.75;0.70;;;;;;;;;;5053831;28;20137;-85
2022/06/03 12:20:47;;;;;;;0.85;0.85;;;;;;;;;;5037069;28;20120;-86
2022/06/03 12:23:14;;;;;;;2.60;1.02;;;;;;;;;;5036396;28;20140;-86
2022/06/03 12:25:51;;;;;;;5.18;0.65;;;;;;;;;;5054277;28;20051;-86
2022/06/03 12:28:29;;;;;;;2.05;0.80;;;;;;;;;;5036380;28;20049;-86
2022/06/03 12:30:58;;;;;;;5.30;0.70;;;;;;;;;;5037218;28;20085;-87
2022/06/03 12:33:44;;;;;;;3.25;0.90;;;;;;;;;;5053943;28;20439;-85
2022/06/03 12:36:30;;;;;;;1.08;0.60;;;;;;;;;;5036008;28;20132;-87
2022/06/03 12:38:57;;;;;;;1.58;0.70;;;;;;;;;;5054074;28;20049;-86
2022/06/03 12:41:43;;;;;;;1.80;0.70;;;;;;;;;;5035795;28;20091;-85
2022/06/03 12:44:33;;;;;;;3.20;0.70;;;;;;;;;;5053827;28;20107;-88
2022/06/03 12:47:18;;;;;;;1.73;0.70;;;;;;;;;;5036346;28;20382;-86
2022/06/03 12:49:45;;;;;;;1.58;0.88;;;;;;;;;;5036363;28;20068;-86
2022/06/03 12:52:22;;;;;;;1.50;0.60;;;;;;;;;;5036249;28;20390;-86
2022/06/03 12:54:49;;;;;;;2.88;1.00;;;;;;;;;;5036015;28;20089;-86
2022/06/03 12:57:27;;;;;;;0.68;0.68;;;;;;;;;;5035806;28;20124;-85
2022/06/03 13:00:00;;;;;;;1.33;0.70;;;;;;;;;;5017128;28;20571;-86
2022/06/03 13:02:35;;;;;;;0.80;0.80;;;;;;;;;;5012714;28;20132;-85
2022/06/03 13:05:03;;;;;;;2.47;0.90;;;;;;;;;;5012958;28;20413;-86
2022/06/03 13:07:32;;;;;;;0.93;0.82;;;;;;;;;;5012789;28;20056;-86
2022/06/03 13:10:02;;;;;;;1.67;0.60;;;;;;;;;;5012449;28;20041;-85
2022/06/03 13:12:44;;;;;;;1.80;0.55;;;;;;;;;;5012538;28;20096;-86
2022/06/03 13:15:18;;;;;;;1.08;0.80;;;;;;;;;;5013534;28;20088;-87
2022/06/03 13:17:54;;;;;;;1.15;0.70;;;;;;;;;;5012801;28;20410;-86
2022/06/03 13:20:38;;;;;;;2.10;1.23;;;;;;;;;;5012429;28;20458;-86
2022/06/03 13:23:25;;;;;;;1.13;0.80;;;;;;;;;;5013341;28;20405;-86
2022/06/03 13:25:56;;;;;;;0.70;0.70;;;;;;;;;;5012777;28;20081;-87
2022/06/03 13:28:35;;;;;;;1.95;0.65;;;;;;;;;;5012701;28;20109;-85
2022/06/03 13:31:12;;;;;;;0.70;0.70;;;;;;;;;;5013440;28;20479;-86
2022/06/03 13:33:58;;;;;;;0.85;0.68;;;;;;;;;;5012645;28;20524;-87
2022/06/03 13:36:31;;;;;;;0.80;0.50;;;;;;;;;;5012606;28;20054;-86
2022/06/03 13:38:58;;;;;;;2.92;0.80;;;;;;;;;;5012787;28;20124;-87
2022/06/03 13:44:39;;;;;;;2.17;0.80;;;;;;;;;;5013426;28;20149;-88
2022/06/03 13:47:08;;;;;;;1.83;0.90;;;;;;;;;;5013784;28;20045;-88
2022/06/03 13:49:36;;;;;;;2.25;1.00;;;;;;;;;;5012208;28;20514;-88
2022/06/03 13:52:11;;;;;;;1.95;1.02;;;;;;;;;;5012473;28;20132;-87
2022/06/03 13:54:38;;;;;;;4.03;1.20;;;;;;;;;;5012669;28;20050;-86
2022/06/03 13:57:42;;;;;;;0.68;0.68;;;;;;;;;;5012026;28;20129;-86
2022/06/03 14:00:09;;;;;;;2.90;0.80;;;;;;;;;;4971834;28;20581;-84
2022/06/03 14:02:38;;;;;;;1.00;0.88;;;;;;;;;;5007170;28;20049;-85
2022/06/03 14:05:08;;;;;;;2.50;0.85;;;;;;;;;;5016408;28;20050;-85
2022/06/03 14:07:44;;;;;;;0.85;0.80;;;;;;;;;;5029722;28;20137;-86
2022/06/03 14:10:19;;;;;;;1.93;0.70;;;;;;;;;;5016741;28;20089;-86
2022/06/03 14:12:52;;;;;;;0.88;0.80;;;;;;;;;;5017281;28;20137;-86
2022/06/03 14:15:26;;;;;;;2.88;0.80;;;;;;;;;;5016942;28;20461;-87
2022/06/03 14:17:55;;;;;;;7.18;2.10;;;;;;;;;;5017166;28;20113;-85
2022/06/03 14:20:32;;;;;;;3.00;1.23;;;;;;;;;;5015809;28;20244;-86
2022/06/03 14:23:08;;;;;;;1.40;1.13;;;;;;;;;;5015516;28;20054;-86
2022/06/03 14:25:42;;;;;;;1.75;0.88;;;;;;;;;;5015673;28;20508;-87
2022/06/03 14:28:20;;;;;;;2.67;1.00;;;;;;;;;;5016887;28;20046;-87
2022/06/03 14:30:52;;;;;;;0.98;0.70;;;;;;;;;;5016463;28;20110;-84
2022/06/03 14:33:21;;;;;;;1.10;0.70;;;;;;;;;;5016257;28;20053;-87
2022/06/03 14:35:52;;;;;;;2.80;0.90;;;;;;;;;;5016511;28;20050;-88
2022/06/03 14:38:26;;;;;;;4.13;1.50;;;;;;;;;;5015561;28;20078;-86
2022/06/03 14:40:53;;;;;;;8.27;2.90;;;;;;;;;;5016918;28;20136;-86
2022/06/03 14:43:26;;;;;;;20.33;2.25;;;;;;;;;;5016653;28;20054;-86
2022/06/03 14:45:56;;;;;;;5.78;1.70;;;;;;;;;;5015192;28;20048;-86
2022/06/03 14:48:27;;;;;;;3.08;1.10;;;;;;;;;;5016370;28;20084;-87
2022/06/03 14:50:57;;;;;;;13.80;2.90;;;;;;;;;;5015507;28;20573;-87
2022/06/03 14:53:29;;;;;;;6.05;1.42;;;;;;;;;;5015802;28;20141;-90
2022/06/03 14:56:16;;;;;;;3.10;1.00;;;;;;;;;;5015512;28;20088;-90
2022/06/03 14:58:48;;;;;;;1.13;0.88;;;;;;;;;;4985747;28;20086;-87
2022/06/03 15:01:27;;;;;;;1.30;1.00;;;;;;;;;;5016225;28;20128;-86
2022/06/03 15:04:20;;;;;;;2.60;0.90;;;;;;;;;;5016034;28;20475;-86
2022/06/03 15:06:51;;;;;;;3.17;1.20;;;;;;;;;;5012388;28;20085;-86
2022/06/03 15:09:27;;;;;;;0.85;0.80;;;;;;;;;;5014721;28;20145;-84
2022/06/03 15:11:58;;;;;;;3.33;0.90;;;;;;;;;;5014981;28;20514;-86
2022/06/03 15:14:26;;;;;;;1.45;0.80;;;;;;;;;;5015816;28;20052;-87
2022/06/03 15:16:56;;;;;;;2.80;0.90;;;;;;;;;;5014521;28;20050;-86
2022/06/03 15:19:44;;;;;;;2.72;1.10;;;;;;;;;;5014463;28;20073;-84
2022/06/03 15:22:14;;;;;;;1.33;0.82;;;;;;;;;;5014922;28;20077;-86
2022/06/03 15:24:47;;;;;;;1.65;0.95;;;;;;;;;;5017595;28;20146;-87
2022/06/03 15:27:15;;;;;;;3.90;0.80;;;;;;;;;;5029778;28;20081;-86
2022/06/03 15:29:42;;;;;;;1.98;0.90;;;;;;;;;;5015566;28;20140;-85
2022/06/03 15:32:10;;;;;;;1.92;0.80;;;;;;;;;;5014481;28;20132;-85
2022/06/03 15:34:37;;;;;;;3.03;0.80;;;;;;;;;;5014178;28;20046;-86
2022/06/03 15:37:04;;;;;;;2.20;0.80;;;;;;;;;;5015207;28;20085;-86
2022/06/03 15:39:36;;;;;;;1.15;1.05;;;;;;;;;;5015462;28;20491;-86
2022/06/03 15:42:11;;;;;;;1.83;1.10;;;;;;;;;;5014136;28;20128;-86
2022/06/03 15:44:42;;;;;;;1.17;1.10;;;;;;;;;;5013882;28;20487;-86
2022/06/03 15:47:09;;;;;;;0.80;0.80;;;;;;;;;;5015071;28;20136;-84
2022/06/03 15:49:37;;;;;;;0.90;0.90;;;;;;;;;;5014157;28;20061;-85
2022/06/03 15:52:08;;;;;;;1.13;0.93;;;;;;;;;;5015281;28;20136;-85
2022/06/03 15:54:37;;;;;;;2.45;1.13;;;;;;;;;;5013629;28;20566;-85
2022/06/03 15:57:23;;;;;;;1.75;1.08;;;;;;;;;;5013963;28;20085;-84
2022/06/03 15:59:53;;;;;;;1.45;1.00;;;;;;;;;;5013925;28;20137;-85
2022/06/03 16:02:22;;;;;;;1.75;0.80;;;;;;;;;;5013806;28;20132;-85
2022/06/03 16:05:08;;;;;;;1.45;1.13;;;;;;;;;;5013716;28;20137;-85